createdAt,value
2024-02-19T00:00:59.377Z,79.96
2024-02-19T00:06:04.800Z,80.26
2024-02-19T00:11:08.735Z,80.72
2024-02-19T00:16:10.357Z,80.90
2024-02-19T00:21:12.118Z,81.90
2024-02-19T00:26:14.960Z,80.74
2024-02-19T00:31:17.467Z,81.71
2024-02-19T00:36:21.186Z,81.84
2024-02-19T00:41:23.360Z,81.46
2024-02-19T00:46:25.235Z,82.60
2024-02-19T00:51:26.875Z,82.46
2024-02-19T00:56:28.834Z,82.14
2024-02-19T01:01:31.953Z,82.30
2024-02-19T01:06:33.648Z,82.12
2024-02-19T01:11:36.056Z,81.77
2024-02-19T01:16:37.916Z,82.34
2024-02-19T01:21:39.818Z,82.64
2024-02-19T01:26:41.360Z,81.98
2024-02-19T01:31:42.898Z,82.37
2024-02-19T01:36:45.402Z,82.64
2024-02-19T01:41:46.999Z,82.26
2024-02-19T01:46:50.250Z,82.86
2024-02-19T01:51:53.030Z,82.49
2024-02-19T01:56:55.136Z,82.28
2024-02-19T02:01:57.080Z,82.85
2024-02-19T02:06:58.988Z,82.12
2024-02-19T02:12:00.667Z,82.21
2024-02-19T02:17:02.310Z,82.28
2024-02-19T02:22:03.999Z,82.79
2024-02-19T02:27:05.885Z,82.85
2024-02-19T02:32:07.791Z,82.64
2024-02-19T02:37:09.418Z,82.35
2024-02-19T02:42:11.109Z,82.39
2024-02-19T02:47:12.661Z,82.47
2024-02-19T02:52:14.314Z,82.69
2024-02-19T02:57:15.892Z,82.93
2024-02-19T03:02:17.421Z,83.70
2024-02-19T03:07:19.116Z,83.11
2024-02-19T03:12:20.772Z,82.93
2024-02-19T03:17:24.112Z,83.03
2024-02-19T03:22:27.129Z,83.68
2024-02-19T03:27:28.748Z,83.54
2024-02-19T03:32:30.312Z,83.17
2024-02-19T03:37:32.204Z,83.11
2024-02-19T03:42:34.589Z,83.32
2024-02-19T03:47:36.313Z,83.04
2024-02-19T03:52:39.058Z,83.05
2024-02-19T03:57:40.693Z,82.95
2024-02-19T04:02:42.462Z,83.09
2024-02-19T04:07:44.076Z,82.83
2024-02-19T04:12:45.721Z,82.98
2024-02-19T04:17:49.040Z,83.04
2024-02-19T04:22:50.835Z,83.15
2024-02-19T04:27:53.448Z,83.01
2024-02-19T04:32:55.169Z,83.34
2024-02-19T04:37:56.965Z,83.35
2024-02-19T04:42:58.652Z,83.59
2024-02-19T04:48:00.381Z,83.27
2024-02-19T04:53:02.050Z,83.07
2024-02-19T04:58:03.762Z,83.30
2024-02-19T05:03:05.653Z,83.65
2024-02-19T05:08:07.727Z,83.70
2024-02-19T05:13:09.343Z,83.87
2024-02-19T05:18:11.121Z,83.82
2024-02-19T05:23:12.728Z,84.23
2024-02-19T05:28:14.399Z,84.32
2024-02-19T05:33:19.729Z,84.01
2024-02-19T05:38:22.058Z,84.18
2024-02-19T05:43:23.709Z,84.56
2024-02-19T05:48:25.847Z,84.48
2024-02-19T05:53:27.691Z,84.56
2024-02-19T05:58:29.393Z,84.44
2024-02-19T06:03:33.429Z,84.22
2024-02-19T06:08:35.036Z,84.18
2024-02-19T06:13:36.659Z,84.11
2024-02-19T06:18:38.537Z,84.11
2024-02-19T06:23:40.761Z,83.92
2024-02-19T06:28:42.418Z,84.08
2024-02-19T06:33:44.693Z,84.15
2024-02-19T06:38:46.512Z,83.95
2024-02-19T06:43:48.066Z,83.77
2024-02-19T06:48:52.262Z,83.73
2024-02-19T06:53:54.268Z,83.37
2024-02-19T06:58:55.879Z,82.88
2024-02-19T07:03:57.781Z,82.49
2024-02-19T07:08:59.476Z,82.00
2024-02-19T07:14:01.026Z,82.08
2024-02-19T07:19:02.865Z,81.70
2024-02-19T07:24:04.891Z,81.18
2024-02-19T07:29:06.608Z,81.41
2024-02-19T07:34:09.179Z,81.34
2024-02-19T07:39:12.006Z,81.39
2024-02-19T07:44:14.025Z,81.18
2024-02-19T07:49:15.850Z,81.26
2024-02-19T07:54:17.668Z,81.26
2024-02-19T07:59:21.037Z,80.60
2024-02-19T08:04:28.294Z,80.50
2024-02-19T08:09:30.060Z,80.48
2024-02-19T08:14:31.724Z,80.51
2024-02-19T08:19:34.635Z,80.25
2024-02-19T08:24:39.206Z,79.85
2024-02-19T08:29:40.797Z,79.77
2024-02-19T08:34:42.983Z,79.72
2024-02-19T08:39:45.769Z,79.25
2024-02-19T08:44:47.459Z,79.08
2024-02-19T08:49:49.310Z,79.05
2024-02-19T08:54:51.199Z,78.95
2024-02-19T08:59:53.459Z,78.86
2024-02-19T09:04:55.381Z,78.27
2024-02-19T09:09:57.162Z,77.90
2024-02-19T09:14:59.702Z,77.66
2024-02-19T09:20:02.100Z,77.52
2024-02-19T09:25:05.172Z,77.12
2024-02-19T09:30:09.134Z,77.03
2024-02-19T09:35:11.026Z,77.51
2024-02-19T09:40:14.020Z,77.24
2024-02-19T09:45:20.686Z,77.54
2024-02-19T09:50:24.287Z,77.09
2024-02-19T09:55:26.551Z,77.53
2024-02-19T10:00:31.012Z,78.67
2024-02-19T10:05:35.408Z,79.47
2024-02-19T10:10:39.504Z,80.32
2024-02-19T10:15:41.128Z,80.72
2024-02-19T10:20:52.298Z,80.84
2024-02-19T10:25:55.515Z,82.19
2024-02-19T10:30:59.796Z,82.50
2024-02-19T10:36:03.974Z,83.47
2024-02-19T10:41:06.048Z,84.55
2024-02-19T10:46:07.697Z,84.98
2024-02-19T10:51:09.333Z,85.93
2024-02-19T10:56:19.034Z,85.38
2024-02-19T11:01:23.544Z,86.44
2024-02-19T11:06:25.363Z,86.99
2024-02-19T11:11:27.239Z,87.08
2024-02-19T11:16:29.729Z,86.90
2024-02-19T11:21:31.623Z,88.05
2024-02-19T11:26:33.260Z,88.25
2024-02-19T11:31:35.074Z,87.24
2024-02-19T11:36:36.646Z,88.05
2024-02-19T11:41:38.908Z,88.09
2024-02-19T11:46:44.933Z,87.88
2024-02-19T11:51:54.435Z,88.24
2024-02-19T11:57:04.837Z,88.71
2024-02-19T12:02:07.802Z,88.95
2024-02-19T12:12:27.933Z,90.14
2024-02-19T12:17:31.896Z,89.48
2024-02-19T12:22:35.452Z,90.17
2024-02-19T12:27:37.411Z,90.43
2024-02-19T12:32:40.398Z,90.63
2024-02-19T12:37:42.199Z,90.54
2024-02-19T12:42:43.905Z,92.20
2024-02-19T12:47:45.741Z,91.84
2024-02-19T12:52:47.962Z,92.14
2024-02-19T12:57:49.742Z,92.70
2024-02-19T13:02:51.551Z,93.51
2024-02-19T13:07:53.337Z,94.24
2024-02-19T13:12:55.952Z,94.28
2024-02-19T13:17:58.096Z,95.55
2024-02-19T13:22:59.677Z,95.98
2024-02-19T13:28:01.234Z,95.68
2024-02-19T13:33:07.679Z,96.18
2024-02-19T13:38:46.162Z,97.29
2024-02-19T13:43:47.883Z,96.74
2024-02-19T13:49:00.045Z,96.52
2024-02-19T13:54:01.755Z,96.47
2024-02-19T13:59:06.882Z,97.53
2024-02-19T14:04:08.780Z,97.16
2024-02-19T14:09:12.748Z,97.10
2024-02-19T14:14:14.436Z,97.48
2024-02-19T14:19:16.219Z,97.25
2024-02-19T14:24:19.316Z,97.88
2024-02-19T14:29:21.066Z,97.61
2024-02-19T14:34:24.645Z,97.93
2024-02-19T14:39:28.317Z,98.06
2024-02-19T14:44:29.985Z,99.48
2024-02-19T14:49:32.145Z,99.27
2024-02-19T14:54:34.668Z,98.79
2024-02-19T14:59:41.300Z,99.41
2024-02-19T15:04:43.048Z,99.13
2024-02-19T15:09:44.675Z,99.41
2024-02-19T15:14:47.396Z,99.94
2024-02-19T15:19:49.147Z,99.85
2024-02-19T15:24:51.276Z,100.00
2024-02-19T15:29:54.813Z,99.71
2024-02-19T15:34:56.436Z,100.00
2024-02-19T15:39:58.197Z,99.89
2024-02-19T15:44:59.883Z,100.00
2024-02-19T15:50:01.796Z,99.99
2024-02-19T15:55:07.097Z,100.00
2024-02-19T16:00:16.809Z,100.00
2024-02-19T16:05:18.725Z,100.00
2024-02-19T16:10:21.632Z,100.00
2024-02-19T16:15:23.465Z,100.00
2024-02-19T16:20:25.042Z,100.00
2024-02-19T16:25:27.687Z,100.00
2024-02-19T16:30:34.973Z,100.00
2024-02-19T16:35:39.526Z,100.00
2024-02-19T16:40:41.307Z,100.00
2024-02-19T16:45:43.915Z,100.00
2024-02-19T16:50:45.558Z,100.00
2024-02-19T16:55:48.705Z,100.00
2024-02-19T17:00:55.169Z,100.00
2024-02-19T17:05:57.386Z,100.00
2024-02-19T17:10:59.331Z,100.00
2024-02-19T17:16:02.022Z,100.00
2024-02-19T17:21:05.127Z,100.00
2024-02-19T17:26:08.057Z,100.00
2024-02-19T17:31:10.029Z,100.00
2024-02-19T17:36:11.771Z,100.00
2024-02-19T17:41:13.409Z,100.00
2024-02-19T17:46:18.944Z,100.00
2024-02-19T17:51:22.336Z,100.00
2024-02-19T17:56:26.976Z,100.00
2024-02-19T18:01:28.592Z,100.00
2024-02-19T18:06:31.532Z,100.00
2024-02-19T18:11:35.189Z,100.00
2024-02-19T18:16:40.006Z,100.00
2024-02-19T18:21:47.801Z,100.00
2024-02-19T18:26:50.021Z,100.00
2024-02-19T18:31:56.683Z,100.00
2024-02-19T18:37:00.344Z,100.00
2024-02-19T18:42:04.093Z,100.00
2024-02-19T18:47:06.548Z,100.00
2024-02-19T18:52:08.600Z,100.00
2024-02-19T18:57:10.345Z,100.00
2024-02-19T19:02:12.247Z,100.00
2024-02-19T19:07:18.515Z,100.00
2024-02-19T19:12:21.851Z,100.00
2024-02-19T19:17:24.267Z,100.00
2024-02-19T19:22:25.978Z,100.00
2024-02-19T19:27:29.253Z,100.00
2024-02-19T19:32:33.500Z,100.00
2024-02-19T19:37:35.235Z,100.00
2024-02-19T19:42:37.257Z,100.00
2024-02-19T19:47:39.168Z,100.00
2024-02-19T19:52:41.347Z,100.00
2024-02-19T19:57:50.489Z,100.00
2024-02-19T20:02:52.214Z,100.00
2024-02-19T20:07:53.859Z,100.00
2024-02-19T20:12:55.552Z,100.00
2024-02-19T20:17:57.343Z,100.00
2024-02-19T20:22:59.789Z,100.00
2024-02-19T20:28:02.308Z,100.00
2024-02-19T20:33:04.649Z,100.00
2024-02-19T20:38:06.399Z,100.00
2024-02-19T20:43:08.226Z,100.00
2024-02-19T20:48:09.971Z,100.00
2024-02-19T20:53:14.698Z,100.00
2024-02-19T20:58:17.588Z,100.00
2024-02-19T21:03:22.531Z,100.00
2024-02-19T21:08:26.224Z,100.00
2024-02-19T21:13:27.884Z,100.00
2024-02-19T21:18:34.706Z,99.99
2024-02-19T21:23:45.964Z,99.98
2024-02-19T21:28:47.500Z,100.00
2024-02-19T21:33:49.222Z,100.00
2024-02-19T21:38:51.351Z,99.93
2024-02-19T21:43:52.962Z,100.00
2024-02-19T21:48:56.400Z,100.00
2024-02-19T21:53:58.181Z,100.00
2024-02-19T21:58:59.791Z,100.00
2024-02-19T22:04:02.448Z,100.00
2024-02-19T22:09:04.299Z,100.00
2024-02-19T22:14:06.140Z,100.00
2024-02-19T22:19:07.784Z,100.00
2024-02-19T22:24:09.683Z,100.00
2024-02-19T22:29:11.291Z,100.00
2024-02-19T22:34:12.998Z,100.00
2024-02-19T22:39:15.665Z,100.00
2024-02-19T22:44:17.382Z,100.00
2024-02-19T22:49:19.076Z,100.00
2024-02-19T22:54:20.786Z,100.00
2024-02-19T22:59:24.025Z,100.00
2024-02-19T23:04:25.672Z,100.00
2024-02-19T23:09:27.241Z,99.94
2024-02-19T23:14:28.809Z,100.00
2024-02-19T23:19:30.675Z,99.86
2024-02-19T23:24:32.366Z,99.90
2024-02-19T23:29:34.660Z,99.64
2024-02-19T23:34:36.629Z,99.38
2024-02-19T23:39:39.784Z,99.39
2024-02-19T23:44:42.642Z,99.47
2024-02-19T23:49:44.384Z,99.48
2024-02-19T23:54:46.005Z,99.53
2024-02-19T23:59:47.530Z,99.48
